sensor_id;sensor_type;location;lat;lon;timestamp;P1;durP1;ratioP1;P2;durP2;ratioP2
72194;SDS011;60095;50.180;9.032;2023-03-01T00:01:23;9.27;;;8.45;;
72194;SDS011;60095;50.180;9.032;2023-03-01T00:03:51;18.70;;;9.43;;
72194;SDS011;60095;50.180;9.032;2023-03-01T00:06:18;8.15;;;7.28;;
72194;SDS011;60095;50.180;9.032;2023-03-01T00:08:44;9.55;;;8.70;;
72194;SDS011;60095;50.180;9.032;2023-03-01T00:11:14;8.27;;;7.47;;
72194;SDS011;60095;50.180;9.032;2023-03-01T00:13:41;10.88;;;9.85;;
72194;SDS011;60095;50.180;9.032;2023-03-01T00:16:09;15.88;;;9.00;;
72194;SDS011;60095;50.180;9.032;2023-03-01T00:18:35;11.13;;;9.73;;
72194;SDS011;60095;50.180;9.032;2023-03-01T00:21:03;11.10;;;9.15;;
72194;SDS011;60095;50.180;9.032;2023-03-01T00:23:30;11.98;;;10.23;;
72194;SDS011;60095;50.180;9.032;2023-03-01T00:25:56;19.48;;;9.85;;
72194;SDS011;60095;50.180;9.032;2023-03-01T00:28:23;21.67;;;12.05;;
72194;SDS011;60095;50.180;9.032;2023-03-01T00:30:49;10.88;;;9.10;;
72194;SDS011;60095;50.180;9.032;2023-03-01T00:33:17;11.13;;;8.18;;
72194;SDS011;60095;50.180;9.032;2023-03-01T00:35:43;11.60;;;7.68;;
72194;SDS011;60095;50.180;9.032;2023-03-01T00:38:11;17.17;;;10.32;;
72194;SDS011;60095;50.180;9.032;2023-03-01T00:40:37;9.80;;;8.07;;
72194;SDS011;60095;50.180;9.032;2023-03-01T00:43:04;8.40;;;6.22;;
72194;SDS011;60095;50.180;9.032;2023-03-01T00:45:31;8.80;;;7.90;;
72194;SDS011;60095;50.180;9.032;2023-03-01T00:48:00;18.50;;;9.57;;
72194;SDS011;60095;50.180;9.032;2023-03-01T00:50:26;11.48;;;8.70;;
72194;SDS011;60095;50.180;9.032;2023-03-01T00:52:53;9.82;;;8.57;;
72194;SDS011;60095;50.180;9.032;2023-03-01T00:55:21;9.45;;;8.57;;
72194;SDS011;60095;50.180;9.032;2023-03-01T00:57:47;11.30;;;9.25;;
72194;SDS011;60095;50.180;9.032;2023-03-01T01:00:14;11.18;;;10.02;;
72194;SDS011;60095;50.180;9.032;2023-03-01T01:02:40;9.85;;;8.85;;
72194;SDS011;60095;50.180;9.032;2023-03-01T01:05:07;11.32;;;7.78;;
72194;SDS011;60095;50.180;9.032;2023-03-01T01:07:33;10.57;;;9.68;;
72194;SDS011;60095;50.180;9.032;2023-03-01T01:10:00;9.90;;;9.02;;
72194;SDS011;60095;50.180;9.032;2023-03-01T01:12:28;8.43;;;7.65;;
72194;SDS011;60095;50.180;9.032;2023-03-01T01:14:54;9.68;;;8.70;;
72194;SDS011;60095;50.180;9.032;2023-03-01T01:17:21;9.00;;;7.60;;
72194;SDS011;60095;50.180;9.032;2023-03-01T01:19:47;9.90;;;8.93;;
72194;SDS011;60095;50.180;9.032;2023-03-01T01:22:14;11.25;;;9.25;;
72194;SDS011;60095;50.180;9.032;2023-03-01T01:24:40;10.35;;;9.15;;
72194;SDS011;60095;50.180;9.032;2023-03-01T01:27:06;10.65;;;9.68;;
72194;SDS011;60095;50.180;9.032;2023-03-01T01:29:34;8.25;;;7.47;;
72194;SDS011;60095;50.180;9.032;2023-03-01T01:32:01;12.85;;;8.98;;
72194;SDS011;60095;50.180;9.032;2023-03-01T01:34:28;10.43;;;7.80;;
72194;SDS011;60095;50.180;9.032;2023-03-01T01:36:54;10.15;;;9.25;;
72194;SDS011;60095;50.180;9.032;2023-03-01T01:39:21;9.95;;;8.57;;
72194;SDS011;60095;50.180;9.032;2023-03-01T01:41:48;10.20;;;9.25;;
72194;SDS011;60095;50.180;9.032;2023-03-01T01:44:18;10.25;;;9.23;;
72194;SDS011;60095;50.180;9.032;2023-03-01T01:46:47;8.57;;;7.68;;
72194;SDS011;60095;50.180;9.032;2023-03-01T01:49:17;10.50;;;9.50;;
72194;SDS011;60095;50.180;9.032;2023-03-01T01:51:47;11.25;;;9.25;;
72194;SDS011;60095;50.180;9.032;2023-03-01T01:54:15;11.32;;;10.20;;
72194;SDS011;60095;50.180;9.032;2023-03-01T01:56:44;17.17;;;12.25;;
72194;SDS011;60095;50.180;9.032;2023-03-01T01:59:13;9.75;;;8.15;;
72194;SDS011;60095;50.180;9.032;2023-03-01T02:01:40;9.40;;;8.40;;
72194;SDS011;60095;50.180;9.032;2023-03-01T02:04:08;7.40;;;6.70;;
72194;SDS011;60095;50.180;9.032;2023-03-01T02:06:36;8.90;;;8.10;;
72194;SDS011;60095;50.180;9.032;2023-03-01T02:09:06;14.07;;;9.73;;
72194;SDS011;60095;50.180;9.032;2023-03-01T02:11:36;11.43;;;9.25;;
72194;SDS011;60095;50.180;9.032;2023-03-01T02:14:03;11.43;;;7.97;;
72194;SDS011;60095;50.180;9.032;2023-03-01T02:16:29;11.75;;;8.88;;
72194;SDS011;60095;50.180;9.032;2023-03-01T02:18:56;18.85;;;11.43;;
72194;SDS011;60095;50.180;9.032;2023-03-01T02:21:28;10.52;;;9.55;;
72194;SDS011;60095;50.180;9.032;2023-03-01T02:23:56;10.00;;;9.07;;
72194;SDS011;60095;50.180;9.032;2023-03-01T02:26:27;10.52;;;9.45;;
72194;SDS011;60095;50.180;9.032;2023-03-01T02:28:59;18.80;;;9.27;;
72194;SDS011;60095;50.180;9.032;2023-03-01T02:31:26;9.35;;;8.45;;
72194;SDS011;60095;50.180;9.032;2023-03-01T02:34:08;11.07;;;9.40;;
72194;SDS011;60095;50.180;9.032;2023-03-01T02:36:35;10.32;;;9.25;;
72194;SDS011;60095;50.180;9.032;2023-03-01T02:39:03;10.88;;;9.75;;
72194;SDS011;60095;50.180;9.032;2023-03-01T02:41:32;10.80;;;8.70;;
72194;SDS011;60095;50.180;9.032;2023-03-01T02:44:01;8.90;;;7.97;;
72194;SDS011;60095;50.180;9.032;2023-03-01T02:46:28;7.15;;;6.50;;
72194;SDS011;60095;50.180;9.032;2023-03-01T02:48:55;10.65;;;9.65;;
72194;SDS011;60095;50.180;9.032;2023-03-01T02:51:24;15.48;;;9.00;;
72194;SDS011;60095;50.180;9.032;2023-03-01T02:53:55;19.05;;;9.85;;
72194;SDS011;60095;50.180;9.032;2023-03-01T02:56:22;10.00;;;8.98;;
72194;SDS011;60095;50.180;9.032;2023-03-01T02:58:49;12.57;;;9.82;;
72194;SDS011;60095;50.180;9.032;2023-03-01T03:01:18;9.70;;;8.20;;
72194;SDS011;60095;50.180;9.032;2023-03-01T03:03:44;13.68;;;11.73;;
72194;SDS011;60095;50.180;9.032;2023-03-01T03:06:11;12.07;;;10.75;;
72194;SDS011;60095;50.180;9.032;2023-03-01T03:08:37;14.13;;;10.73;;
72194;SDS011;60095;50.180;9.032;2023-03-01T03:11:04;10.65;;;9.25;;
72194;SDS011;60095;50.180;9.032;2023-03-01T03:13:30;11.15;;;10.00;;
72194;SDS011;60095;50.180;9.032;2023-03-01T03:15:57;11.18;;;9.90;;
72194;SDS011;60095;50.180;9.032;2023-03-01T03:18:25;11.07;;;9.98;;
72194;SDS011;60095;50.180;9.032;2023-03-01T03:20:52;9.63;;;8.35;;
72194;SDS011;60095;50.180;9.032;2023-03-01T03:23:18;16.40;;;10.50;;
72194;SDS011;60095;50.180;9.032;2023-03-01T03:25:47;11.07;;;9.98;;
72194;SDS011;60095;50.180;9.032;2023-03-01T03:28:13;10.18;;;9.15;;
72194;SDS011;60095;50.180;9.032;2023-03-01T03:30:41;12.30;;;8.73;;
72194;SDS011;60095;50.180;9.032;2023-03-01T03:33:08;16.65;;;9.93;;
72194;SDS011;60095;50.180;9.032;2023-03-01T03:35:39;12.77;;;9.18;;
72194;SDS011;60095;50.180;9.032;2023-03-01T03:38:07;13.18;;;9.93;;
72194;SDS011;60095;50.180;9.032;2023-03-01T03:40:41;12.90;;;9.57;;
72194;SDS011;60095;50.180;9.032;2023-03-01T03:43:08;15.55;;;7.82;;
72194;SDS011;60095;50.180;9.032;2023-03-01T03:45:35;13.77;;;9.65;;
72194;SDS011;60095;50.180;9.032;2023-03-01T03:48:03;10.55;;;9.55;;
72194;SDS011;60095;50.180;9.032;2023-03-01T03:50:30;12.00;;;10.70;;
72194;SDS011;60095;50.180;9.032;2023-03-01T03:52:57;11.27;;;10.15;;
72194;SDS011;60095;50.180;9.032;2023-03-01T03:55:26;14.60;;;10.85;;
72194;SDS011;60095;50.180;9.032;2023-03-01T03:57:56;10.88;;;9.88;;
72194;SDS011;60095;50.180;9.032;2023-03-01T04:00:23;10.77;;;9.68;;
72194;SDS011;60095;50.180;9.032;2023-03-01T04:02:49;12.70;;;9.75;;
72194;SDS011;60095;50.180;9.032;2023-03-01T04:05:17;10.85;;;9.73;;
72194;SDS011;60095;50.180;9.032;2023-03-01T04:07:44;11.98;;;10.32;;
72194;SDS011;60095;50.180;9.032;2023-03-01T04:10:12;10.02;;;8.70;;
72194;SDS011;60095;50.180;9.032;2023-03-01T04:12:39;13.73;;;8.38;;
72194;SDS011;60095;50.180;9.032;2023-03-01T04:15:08;11.27;;;10.23;;
72194;SDS011;60095;50.180;9.032;2023-03-01T04:17:38;9.15;;;8.00;;
72194;SDS011;60095;50.180;9.032;2023-03-01T04:20:05;12.57;;;11.30;;
72194;SDS011;60095;50.180;9.032;2023-03-01T04:22:33;11.77;;;9.90;;
72194;SDS011;60095;50.180;9.032;2023-03-01T04:25:00;8.70;;;7.60;;
72194;SDS011;60095;50.180;9.032;2023-03-01T04:27:32;22.27;;;11.27;;
72194;SDS011;60095;50.180;9.032;2023-03-01T04:29:58;11.57;;;10.43;;
72194;SDS011;60095;50.180;9.032;2023-03-01T04:32:25;13.32;;;11.93;;
72194;SDS011;60095;50.180;9.032;2023-03-01T04:34:51;17.35;;;13.75;;
72194;SDS011;60095;50.180;9.032;2023-03-01T04:37:18;11.75;;;10.25;;
72194;SDS011;60095;50.180;9.032;2023-03-01T04:39:44;14.98;;;9.48;;
72194;SDS011;60095;50.180;9.032;2023-03-01T04:42:12;16.23;;;12.32;;
72194;SDS011;60095;50.180;9.032;2023-03-01T04:44:40;11.52;;;10.43;;
72194;SDS011;60095;50.180;9.032;2023-03-01T04:47:06;18.65;;;13.15;;
72194;SDS011;60095;50.180;9.032;2023-03-01T04:49:33;23.88;;;10.43;;
72194;SDS011;60095;50.180;9.032;2023-03-01T04:52:02;14.05;;;8.68;;
72194;SDS011;60095;50.180;9.032;2023-03-01T04:54:29;11.70;;;10.57;;
72194;SDS011;60095;50.180;9.032;2023-03-01T04:56:55;14.07;;;10.30;;
72194;SDS011;60095;50.180;9.032;2023-03-01T04:59:22;11.07;;;10.02;;
72194;SDS011;60095;50.180;9.032;2023-03-01T05:01:49;12.18;;;10.93;;
72194;SDS011;60095;50.180;9.032;2023-03-01T05:04:20;12.55;;;8.65;;
72194;SDS011;60095;50.180;9.032;2023-03-01T05:06:47;9.95;;;8.20;;
72194;SDS011;60095;50.180;9.032;2023-03-01T05:09:13;12.30;;;8.82;;
72194;SDS011;60095;50.180;9.032;2023-03-01T05:11:40;14.52;;;12.35;;
72194;SDS011;60095;50.180;9.032;2023-03-01T05:14:06;12.57;;;10.45;;
72194;SDS011;60095;50.180;9.032;2023-03-01T05:16:37;18.15;;;11.10;;
72194;SDS011;60095;50.180;9.032;2023-03-01T05:19:04;9.32;;;8.43;;
72194;SDS011;60095;50.180;9.032;2023-03-01T05:21:36;12.70;;;10.20;;
72194;SDS011;60095;50.180;9.032;2023-03-01T05:24:22;10.30;;;9.20;;
72194;SDS011;60095;50.180;9.032;2023-03-01T05:26:49;11.13;;;9.15;;
72194;SDS011;60095;50.180;9.032;2023-03-01T05:29:16;12.35;;;9.07;;
72194;SDS011;60095;50.180;9.032;2023-03-01T05:31:43;9.18;;;8.32;;
72194;SDS011;60095;50.180;9.032;2023-03-01T05:34:11;13.70;;;8.98;;
72194;SDS011;60095;50.180;9.032;2023-03-01T05:36:37;11.77;;;8.52;;
72194;SDS011;60095;50.180;9.032;2023-03-01T05:39:04;9.82;;;9.02;;
72194;SDS011;60095;50.180;9.032;2023-03-01T05:41:30;9.25;;;8.48;;
72194;SDS011;60095;50.180;9.032;2023-03-01T05:43:56;11.82;;;8.00;;
72194;SDS011;60095;50.180;9.032;2023-03-01T05:46:23;12.63;;;9.52;;
72194;SDS011;60095;50.180;9.032;2023-03-01T05:48:49;13.27;;;11.52;;
72194;SDS011;60095;50.180;9.032;2023-03-01T05:51:17;13.18;;;8.50;;
72194;SDS011;60095;50.180;9.032;2023-03-01T05:53:43;12.32;;;10.45;;
72194;SDS011;60095;50.180;9.032;2023-03-01T05:56:11;9.93;;;9.10;;
72194;SDS011;60095;50.180;9.032;2023-03-01T05:58:37;15.77;;;11.60;;
72194;SDS011;60095;50.180;9.032;2023-03-01T06:01:04;11.30;;;9.55;;
72194;SDS011;60095;50.180;9.032;2023-03-01T06:03:30;10.32;;;9.25;;
72194;SDS011;60095;50.180;9.032;2023-03-01T06:05:57;13.25;;;9.02;;
72194;SDS011;60095;50.180;9.032;2023-03-01T06:08:25;11.27;;;9.38;;
72194;SDS011;60095;50.180;9.032;2023-03-01T06:10:52;17.77;;;11.23;;
72194;SDS011;60095;50.180;9.032;2023-03-01T06:13:18;12.05;;;10.23;;
72194;SDS011;60095;50.180;9.032;2023-03-01T06:15:45;20.92;;;11.35;;
72194;SDS011;60095;50.180;9.032;2023-03-01T06:18:11;12.23;;;9.23;;
72194;SDS011;60095;50.180;9.032;2023-03-01T06:20:38;9.55;;;8.35;;
72194;SDS011;60095;50.180;9.032;2023-03-01T06:23:04;11.18;;;10.27;;
72194;SDS011;60095;50.180;9.032;2023-03-01T06:25:32;12.68;;;10.75;;
72194;SDS011;60095;50.180;9.032;2023-03-01T06:27:58;9.82;;;8.85;;
72194;SDS011;60095;50.180;9.032;2023-03-01T06:30:25;14.40;;;11.27;;
72194;SDS011;60095;50.180;9.032;2023-03-01T06:32:52;19.63;;;9.73;;
72194;SDS011;60095;50.180;9.032;2023-03-01T06:35:25;15.45;;;10.60;;
72194;SDS011;60095;50.180;9.032;2023-03-01T06:37:55;20.42;;;9.95;;
72194;SDS011;60095;50.180;9.032;2023-03-01T06:40:22;12.95;;;11.60;;
72194;SDS011;60095;50.180;9.032;2023-03-01T06:42:50;12.38;;;10.40;;
72194;SDS011;60095;50.180;9.032;2023-03-01T06:45:17;11.52;;;10.43;;
72194;SDS011;60095;50.180;9.032;2023-03-01T06:47:43;10.15;;;9.13;;
72194;SDS011;60095;50.180;9.032;2023-03-01T06:50:10;9.25;;;8.35;;
72194;SDS011;60095;50.180;9.032;2023-03-01T06:52:37;12.30;;;9.38;;
72194;SDS011;60095;50.180;9.032;2023-03-01T06:55:04;13.38;;;9.60;;
72194;SDS011;60095;50.180;9.032;2023-03-01T06:57:31;12.07;;;9.30;;
72194;SDS011;60095;50.180;9.032;2023-03-01T06:59:58;14.70;;;11.07;;
72194;SDS011;60095;50.180;9.032;2023-03-01T07:02:25;13.52;;;9.40;;
72194;SDS011;60095;50.180;9.032;2023-03-01T07:04:51;16.17;;;10.52;;
72194;SDS011;60095;50.180;9.032;2023-03-01T07:07:18;11.68;;;10.57;;
72194;SDS011;60095;50.180;9.032;2023-03-01T07:09:45;12.10;;;8.85;;
72194;SDS011;60095;50.180;9.032;2023-03-01T07:12:11;33.38;;;12.15;;
72194;SDS011;60095;50.180;9.032;2023-03-01T07:14:38;10.35;;;8.65;;
72194;SDS011;60095;50.180;9.032;2023-03-01T07:17:05;15.32;;;11.13;;
72194;SDS011;60095;50.180;9.032;2023-03-01T07:19:32;11.43;;;10.10;;
72194;SDS011;60095;50.180;9.032;2023-03-01T07:21:58;12.90;;;10.25;;
72194;SDS011;60095;50.180;9.032;2023-03-01T07:24:24;13.48;;;9.90;;
72194;SDS011;60095;50.180;9.032;2023-03-01T07:26:51;20.77;;;10.15;;
72194;SDS011;60095;50.180;9.032;2023-03-01T07:29:19;11.57;;;8.45;;
72194;SDS011;60095;50.180;9.032;2023-03-01T07:31:48;11.25;;;10.15;;
72194;SDS011;60095;50.180;9.032;2023-03-01T07:34:16;12.75;;;9.20;;
72194;SDS011;60095;50.180;9.032;2023-03-01T07:36:43;15.82;;;9.30;;
72194;SDS011;60095;50.180;9.032;2023-03-01T07:39:10;10.98;;;8.40;;
72194;SDS011;60095;50.180;9.032;2023-03-01T07:41:36;19.92;;;11.38;;
72194;SDS011;60095;50.180;9.032;2023-03-01T07:44:03;11.75;;;10.57;;
72194;SDS011;60095;50.180;9.032;2023-03-01T07:46:29;11.93;;;8.95;;
72194;SDS011;60095;50.180;9.032;2023-03-01T07:48:56;12.88;;;8.93;;
72194;SDS011;60095;50.180;9.032;2023-03-01T07:51:24;15.48;;;10.43;;
72194;SDS011;60095;50.180;9.032;2023-03-01T07:53:50;13.27;;;10.60;;
72194;SDS011;60095;50.180;9.032;2023-03-01T07:56:17;15.85;;;10.88;;
72194;SDS011;60095;50.180;9.032;2023-03-01T07:58:44;11.27;;;9.30;;
72194;SDS011;60095;50.180;9.032;2023-03-01T08:01:12;14.43;;;10.93;;
72194;SDS011;60095;50.180;9.032;2023-03-01T08:03:40;11.13;;;7.88;;
72194;SDS011;60095;50.180;9.032;2023-03-01T08:06:08;11.27;;;10.18;;
72194;SDS011;60095;50.180;9.032;2023-03-01T08:08:36;12.10;;;9.23;;
72194;SDS011;60095;50.180;9.032;2023-03-01T08:11:03;13.10;;;10.82;;
72194;SDS011;60095;50.180;9.032;2023-03-01T08:13:30;10.63;;;9.57;;
72194;SDS011;60095;50.180;9.032;2023-03-01T08:16:00;12.30;;;9.32;;
72194;SDS011;60095;50.180;9.032;2023-03-01T08:21:01;9.25;;;8.32;;
72194;SDS011;60095;50.180;9.032;2023-03-01T08:23:30;12.50;;;8.95;;
72194;SDS011;60095;50.180;9.032;2023-03-01T08:26:04;15.85;;;8.80;;
72194;SDS011;60095;50.180;9.032;2023-03-01T08:28:31;12.10;;;9.85;;
72194;SDS011;60095;50.180;9.032;2023-03-01T08:30:58;9.25;;;8.40;;
72194;SDS011;60095;50.180;9.032;2023-03-01T08:33:24;13.73;;;9.32;;
72194;SDS011;60095;50.180;9.032;2023-03-01T08:35:50;12.00;;;8.05;;
72194;SDS011;60095;50.180;9.032;2023-03-01T08:38:17;9.52;;;8.63;;
72194;SDS011;60095;50.180;9.032;2023-03-01T08:40:43;19.88;;;10.40;;
72194;SDS011;60095;50.180;9.032;2023-03-01T08:43:11;16.48;;;7.97;;
72194;SDS011;60095;50.180;9.032;2023-03-01T08:45:37;11.18;;;8.80;;
72194;SDS011;60095;50.180;9.032;2023-03-01T08:48:03;10.00;;;8.95;;
72194;SDS011;60095;50.180;9.032;2023-03-01T08:50:30;13.93;;;10.43;;
72194;SDS011;60095;50.180;9.032;2023-03-01T08:52:56;13.15;;;9.50;;
72194;SDS011;60095;50.180;9.032;2023-03-01T08:55:23;8.43;;;7.60;;
72194;SDS011;60095;50.180;9.032;2023-03-01T08:57:49;10.25;;;8.77;;
72194;SDS011;60095;50.180;9.032;2023-03-01T09:00:17;11.27;;;8.60;;
72194;SDS011;60095;50.180;9.032;2023-03-01T09:02:44;11.55;;;8.90;;
72194;SDS011;60095;50.180;9.032;2023-03-01T09:05:10;13.30;;;6.95;;
72194;SDS011;60095;50.180;9.032;2023-03-01T09:07:36;9.07;;;8.18;;
72194;SDS011;60095;50.180;9.032;2023-03-01T09:10:03;9.48;;;8.27;;
72194;SDS011;60095;50.180;9.032;2023-03-01T09:12:30;12.38;;;9.82;;
72194;SDS011;60095;50.180;9.032;2023-03-01T09:14:56;17.35;;;9.40;;
72194;SDS011;60095;50.180;9.032;2023-03-01T09:17:24;8.25;;;6.88;;
72194;SDS011;60095;50.180;9.032;2023-03-01T09:19:50;8.13;;;6.80;;
72194;SDS011;60095;50.180;9.032;2023-03-01T09:22:16;10.38;;;8.30;;
72194;SDS011;60095;50.180;9.032;2023-03-01T09:24:43;6.63;;;5.97;;
72194;SDS011;60095;50.180;9.032;2023-03-01T09:27:10;7.63;;;6.43;;
72194;SDS011;60095;50.180;9.032;2023-03-01T09:29:37;10.30;;;8.00;;
72194;SDS011;60095;50.180;9.032;2023-03-01T09:32:07;9.27;;;7.63;;
72194;SDS011;60095;50.180;9.032;2023-03-01T09:34:35;9.52;;;6.93;;
72194;SDS011;60095;50.180;9.032;2023-03-01T09:37:22;9.57;;;7.95;;
72194;SDS011;60095;50.180;9.032;2023-03-01T09:39:48;8.98;;;8.00;;
72194;SDS011;60095;50.180;9.032;2023-03-01T09:42:15;8.57;;;7.35;;
72194;SDS011;60095;50.180;9.032;2023-03-01T09:44:43;10.20;;;8.63;;
72194;SDS011;60095;50.180;9.032;2023-03-01T09:47:12;11.98;;;9.43;;
72194;SDS011;60095;50.180;9.032;2023-03-01T09:49:41;10.77;;;6.13;;
72194;SDS011;60095;50.180;9.032;2023-03-01T09:52:16;20.25;;;8.55;;
72194;SDS011;60095;50.180;9.032;2023-03-01T09:54:46;10.43;;;7.53;;
72194;SDS011;60095;50.180;9.032;2023-03-01T09:57:15;8.73;;;7.78;;
72194;SDS011;60095;50.180;9.032;2023-03-01T09:59:48;9.57;;;7.50;;
72194;SDS011;60095;50.180;9.032;2023-03-01T10:02:22;12.85;;;7.10;;
72194;SDS011;60095;50.180;9.032;2023-03-01T10:04:51;7.15;;;6.53;;
72194;SDS011;60095;50.180;9.032;2023-03-01T10:07:21;17.42;;;7.60;;
72194;SDS011;60095;50.180;9.032;2023-03-01T10:10:18;10.45;;;7.70;;
72194;SDS011;60095;50.180;9.032;2023-03-01T10:12:47;6.13;;;4.88;;
72194;SDS011;60095;50.180;9.032;2023-03-01T10:15:15;9.20;;;8.27;;
72194;SDS011;60095;50.180;9.032;2023-03-01T10:17:43;15.35;;;7.43;;
72194;SDS011;60095;50.180;9.032;2023-03-01T10:20:17;9.90;;;7.93;;
72194;SDS011;60095;50.180;9.032;2023-03-01T10:22:44;12.35;;;5.38;;
72194;SDS011;60095;50.180;9.032;2023-03-01T10:25:15;8.77;;;7.07;;
72194;SDS011;60095;50.180;9.032;2023-03-01T10:27:44;9.93;;;5.75;;
72194;SDS011;60095;50.180;9.032;2023-03-01T10:30:12;8.15;;;5.32;;
72194;SDS011;60095;50.180;9.032;2023-03-01T10:32:41;9.05;;;6.28;;
72194;SDS011;60095;50.180;9.032;2023-03-01T10:35:16;10.85;;;7.45;;
72194;SDS011;60095;50.180;9.032;2023-03-01T10:37:54;9.45;;;7.32;;
72194;SDS011;60095;50.180;9.032;2023-03-01T10:40:22;6.35;;;5.75;;
72194;SDS011;60095;50.180;9.032;2023-03-01T10:42:49;6.07;;;5.47;;
72194;SDS011;60095;50.180;9.032;2023-03-01T10:45:17;9.70;;;5.88;;
72194;SDS011;60095;50.180;9.032;2023-03-01T10:47:43;5.30;;;4.53;;
72194;SDS011;60095;50.180;9.032;2023-03-01T10:50:19;6.03;;;5.07;;
72194;SDS011;60095;50.180;9.032;2023-03-01T10:52:55;6.97;;;4.32;;
72194;SDS011;60095;50.180;9.032;2023-03-01T10:55:23;8.90;;;5.38;;
72194;SDS011;60095;50.180;9.032;2023-03-01T10:57:50;9.32;;;5.43;;
72194;SDS011;60095;50.180;9.032;2023-03-01T11:00:31;6.18;;;4.70;;
72194;SDS011;60095;50.180;9.032;2023-03-01T11:03:02;7.53;;;6.63;;
72194;SDS011;60095;50.180;9.032;2023-03-01T11:05:30;5.75;;;5.07;;
72194;SDS011;60095;50.180;9.032;2023-03-01T11:07:58;7.50;;;5.20;;
72194;SDS011;60095;50.180;9.032;2023-03-01T11:10:26;9.80;;;5.40;;
72194;SDS011;60095;50.180;9.032;2023-03-01T11:12:53;13.75;;;5.18;;
72194;SDS011;60095;50.180;9.032;2023-03-01T11:15:20;6.50;;;4.95;;
72194;SDS011;60095;50.180;9.032;2023-03-01T11:17:47;6.35;;;5.25;;
72194;SDS011;60095;50.180;9.032;2023-03-01T11:20:17;8.25;;;7.35;;
72194;SDS011;60095;50.180;9.032;2023-03-01T11:22:49;12.90;;;8.68;;
72194;SDS011;60095;50.180;9.032;2023-03-01T11:25:16;12.93;;;7.72;;
72194;SDS011;60095;50.180;9.032;2023-03-01T11:27:44;10.27;;;6.85;;
72194;SDS011;60095;50.180;9.032;2023-03-01T11:30:13;10.32;;;6.43;;
72194;SDS011;60095;50.180;9.032;2023-03-01T11:32:42;11.50;;;9.02;;
72194;SDS011;60095;50.180;9.032;2023-03-01T11:35:14;8.52;;;7.70;;
72194;SDS011;60095;50.180;9.032;2023-03-01T11:37:44;8.77;;;7.18;;
72194;SDS011;60095;50.180;9.032;2023-03-01T11:40:21;11.60;;;8.15;;
72194;SDS011;60095;50.180;9.032;2023-03-01T11:42:51;9.48;;;7.47;;
72194;SDS011;60095;50.180;9.032;2023-03-01T11:45:20;8.73;;;6.63;;
72194;SDS011;60095;50.180;9.032;2023-03-01T11:48:11;9.20;;;7.70;;
72194;SDS011;60095;50.180;9.032;2023-03-01T11:50:40;12.30;;;7.07;;
72194;SDS011;60095;50.180;9.032;2023-03-01T11:53:16;10.13;;;7.00;;
72194;SDS011;60095;50.180;9.032;2023-03-01T11:55:49;14.77;;;7.90;;
72194;SDS011;60095;50.180;9.032;2023-03-01T11:58:24;9.38;;;7.05;;
72194;SDS011;60095;50.180;9.032;2023-03-01T12:00:59;8.80;;;7.90;;
72194;SDS011;60095;50.180;9.032;2023-03-01T12:03:29;8.82;;;6.45;;
72194;SDS011;60095;50.180;9.032;2023-03-01T12:08:41;7.75;;;6.97;;
72194;SDS011;60095;50.180;9.032;2023-03-01T12:11:13;10.23;;;5.55;;
72194;SDS011;60095;50.180;9.032;2023-03-01T12:18:56;9.30;;;7.00;;
72194;SDS011;60095;50.180;9.032;2023-03-01T12:21:29;13.38;;;7.78;;
72194;SDS011;60095;50.180;9.032;2023-03-01T12:26:47;6.47;;;5.80;;
72194;SDS011;60095;50.180;9.032;2023-03-01T12:29:23;19.27;;;6.13;;
72194;SDS011;60095;50.180;9.032;2023-03-01T12:34:48;8.35;;;6.50;;
72194;SDS011;60095;50.180;9.032;2023-03-01T12:37:20;6.10;;;5.38;;
72194;SDS011;60095;50.180;9.032;2023-03-01T12:39:51;8.68;;;5.72;;
72194;SDS011;60095;50.180;9.032;2023-03-01T12:42:26;6.13;;;5.32;;
72194;SDS011;60095;50.180;9.032;2023-03-01T12:44:59;8.27;;;5.97;;
72194;SDS011;60095;50.180;9.032;2023-03-01T12:47:36;12.90;;;6.90;;
72194;SDS011;60095;50.180;9.032;2023-03-01T12:50:06;7.93;;;5.13;;
72194;SDS011;60095;50.180;9.032;2023-03-01T12:52:38;6.85;;;5.85;;
72194;SDS011;60095;50.180;9.032;2023-03-01T12:55:08;10.60;;;5.22;;
72194;SDS011;60095;50.180;9.032;2023-03-01T12:57:45;7.47;;;5.18;;
72194;SDS011;60095;50.180;9.032;2023-03-01T13:00:18;7.00;;;5.07;;
72194;SDS011;60095;50.180;9.032;2023-03-01T13:02:48;6.65;;;5.97;;
72194;SDS011;60095;50.180;9.032;2023-03-01T13:05:27;7.78;;;5.45;;
72194;SDS011;60095;50.180;9.032;2023-03-01T13:07:57;11.13;;;7.50;;
72194;SDS011;60095;50.180;9.032;2023-03-01T13:10:26;6.97;;;6.28;;
72194;SDS011;60095;50.180;9.032;2023-03-01T13:13:23;16.67;;;6.60;;
72194;SDS011;60095;50.180;9.032;2023-03-01T13:15:54;5.97;;;5.45;;
72194;SDS011;60095;50.180;9.032;2023-03-01T13:18:28;8.57;;;5.85;;
72194;SDS011;60095;50.180;9.032;2023-03-01T13:20:56;9.00;;;7.28;;
72194;SDS011;60095;50.180;9.032;2023-03-01T13:23:33;7.93;;;6.00;;
72194;SDS011;60095;50.180;9.032;2023-03-01T13:26:14;6.32;;;5.28;;
72194;SDS011;60095;50.180;9.032;2023-03-01T13:28:47;9.40;;;7.38;;
72194;SDS011;60095;50.180;9.032;2023-03-01T13:33:59;9.48;;;5.60;;
72194;SDS011;60095;50.180;9.032;2023-03-01T13:41:53;12.07;;;7.18;;
72194;SDS011;60095;50.180;9.032;2023-03-01T13:44:24;6.13;;;5.40;;
72194;SDS011;60095;50.180;9.032;2023-03-01T13:46:56;8.95;;;7.40;;
72194;SDS011;60095;50.180;9.032;2023-03-01T13:49:28;7.38;;;5.80;;
72194;SDS011;60095;50.180;9.032;2023-03-01T13:51:54;7.50;;;5.55;;
72194;SDS011;60095;50.180;9.032;2023-03-01T13:54:23;11.13;;;6.38;;
72194;SDS011;60095;50.180;9.032;2023-03-01T13:56:51;14.75;;;7.18;;
72194;SDS011;60095;50.180;9.032;2023-03-01T13:59:18;9.27;;;7.72;;
72194;SDS011;60095;50.180;9.032;2023-03-01T14:01:52;9.35;;;7.15;;
72194;SDS011;60095;50.180;9.032;2023-03-01T14:04:20;8.73;;;5.95;;
72194;SDS011;60095;50.180;9.032;2023-03-01T14:06:47;10.20;;;7.25;;
72194;SDS011;60095;50.180;9.032;2023-03-01T14:09:14;7.38;;;6.25;;
72194;SDS011;60095;50.180;9.032;2023-03-01T14:11:58;6.72;;;5.30;;
72194;SDS011;60095;50.180;9.032;2023-03-01T14:16:55;8.80;;;7.15;;
72194;SDS011;60095;50.180;9.032;2023-03-01T14:19:25;8.55;;;6.70;;
72194;SDS011;60095;50.180;9.032;2023-03-01T14:21:58;11.93;;;6.32;;
72194;SDS011;60095;50.180;9.032;2023-03-01T14:24:27;8.30;;;4.90;;
72194;SDS011;60095;50.180;9.032;2023-03-01T14:26:53;12.82;;;6.32;;
72194;SDS011;60095;50.180;9.032;2023-03-01T14:29:23;7.03;;;4.95;;
72194;SDS011;60095;50.180;9.032;2023-03-01T14:31:50;8.57;;;6.40;;
72194;SDS011;60095;50.180;9.032;2023-03-01T14:34:20;6.15;;;4.38;;
72194;SDS011;60095;50.180;9.032;2023-03-01T14:36:46;5.90;;;5.20;;
72194;SDS011;60095;50.180;9.032;2023-03-01T14:39:16;8.77;;;7.40;;
72194;SDS011;60095;50.180;9.032;2023-03-01T14:41:42;9.20;;;6.18;;
72194;SDS011;60095;50.180;9.032;2023-03-01T14:44:12;8.05;;;6.22;;
72194;SDS011;60095;50.180;9.032;2023-03-01T14:46:40;7.32;;;6.55;;
72194;SDS011;60095;50.180;9.032;2023-03-01T14:49:09;9.15;;;6.25;;
72194;SDS011;60095;50.180;9.032;2023-03-01T14:51:39;7.78;;;7.03;;
72194;SDS011;60095;50.180;9.032;2023-03-01T14:54:15;7.00;;;6.30;;
72194;SDS011;60095;50.180;9.032;2023-03-01T14:56:47;8.00;;;6.90;;
72194;SDS011;60095;50.180;9.032;2023-03-01T14:59:13;8.02;;;5.32;;
72194;SDS011;60095;50.180;9.032;2023-03-01T15:01:40;8.13;;;6.72;;
72194;SDS011;60095;50.180;9.032;2023-03-01T15:04:08;9.48;;;6.57;;
72194;SDS011;60095;50.180;9.032;2023-03-01T15:06:38;14.63;;;6.85;;
72194;SDS011;60095;50.180;9.032;2023-03-01T15:09:05;10.02;;;6.60;;
72194;SDS011;60095;50.180;9.032;2023-03-01T15:11:33;12.57;;;8.43;;
72194;SDS011;60095;50.180;9.032;2023-03-01T15:14:01;10.88;;;7.22;;